Time;durP1;ratioP1;P1;durP2;ratioP2;P2;SDS_P1;SDS_P2;PMS_P1;PMS_P2;Temp;Humidity;BMP_temperature;BMP_pressure;BME280_temperature;BME280_humidity;BME280_pressure;Samples;Min_cycle;Max_cycle;Signal;HPM_P1;HPM_P2
2023/06/01 00:00:18;;;;;;;10.55;7.53;;;;;;;15.35;68.29;102037.00;3613777;39;20065;-66
2023/06/01 00:02:45;;;;;;;9.40;7.93;;;;;;;15.28;68.58;102031.09;3614579;39;20124;-65
2023/06/01 00:05:10;;;;;;;12.63;8.20;;;;;;;15.23;68.81;102038.66;3617876;39;20366;-67
2023/06/01 00:07:36;;;;;;;11.13;7.53;;;;;;;15.11;69.05;102028.59;3616232;39;20066;-66
2023/06/01 00:10:02;;;;;;;11.00;8.60;;;;;;;15.12;68.62;102033.03;3612702;39;20062;-66
2023/06/01 00:12:28;;;;;;;13.93;8.98;;;;;;;15.14;69.37;102036.53;3612165;39;20060;-65
2023/06/01 00:14:53;;;;;;;14.23;8.60;;;;;;;15.09;69.57;102034.09;3615082;39;20085;-66
2023/06/01 00:17:19;;;;;;;15.82;11.27;;;;;;;15.02;69.34;102036.28;3615364;39;20065;-66
2023/06/01 00:19:47;;;;;;;17.63;9.77;;;;;;;14.95;70.23;102031.38;3614040;39;20428;-66
2023/06/01 00:22:13;;;;;;;13.38;8.75;;;;;;;14.85;70.24;102025.63;3615854;39;20047;-65
2023/06/01 00:24:38;;;;;;;13.32;9.15;;;;;;;14.78;70.67;102032.38;3615331;39;20054;-65
2023/06/01 00:27:05;;;;;;;13.68;8.90;;;;;;;14.73;70.74;102029.94;3614372;39;20388;-67
2023/06/01 00:29:30;;;;;;;13.23;9.13;;;;;;;14.69;71.55;102027.53;3616223;39;20050;-65
2023/06/01 00:31:57;;;;;;;15.40;9.18;;;;;;;14.65;71.36;102028.66;3613901;39;20074;-66
2023/06/01 00:34:22;;;;;;;12.73;9.10;;;;;;;14.56;71.63;102033.66;3613847;39;20055;-66
2023/06/01 00:36:48;;;;;;;14.23;9.57;;;;;;;14.50;71.68;102031.28;3612192;39;20065;-65
2023/06/01 00:39:13;;;;;;;13.65;9.07;;;;;;;14.46;71.95;102029.75;3617235;39;20046;-66
2023/06/01 00:41:39;;;;;;;12.93;9.75;;;;;;;14.39;71.92;102031.03;3612256;39;20058;-66
2023/06/01 00:44:04;;;;;;;14.00;9.32;;;;;;;14.34;71.71;102030.47;3613641;39;20066;-66
2023/06/01 00:46:31;;;;;;;15.95;10.25;;;;;;;14.01;72.10;101984.59;3615169;39;20338;-66
2023/06/01 00:48:58;;;;;;;16.23;9.75;;;;;;;14.22;72.33;102023.91;3614850;39;20051;-66
2023/06/01 00:51:25;;;;;;;17.88;10.65;;;;;;;14.17;72.52;102028.72;3616222;39;20057;-67
2023/06/01 00:53:51;;;;;;;13.85;9.88;;;;;;;14.15;72.28;102022.53;3616190;39;20100;-66
2023/06/01 00:56:18;;;;;;;15.63;10.75;;;;;;;14.11;72.26;102026.34;3615843;39;20059;-67
2023/06/01 00:58:44;;;;;;;16.25;10.85;;;;;;;14.05;72.38;102033.00;3612951;39;20291;-66
2023/06/01 01:01:18;;;;;;;14.30;10.20;;;;;;;14.01;72.37;102028.72;3613694;39;20062;-67
2023/06/01 01:03:57;;;;;;;14.95;11.35;;;;;;;13.71;72.72;101998.91;3615820;39;20354;-66
2023/06/01 01:06:57;;;;;;;14.30;11.00;;;;;;;13.85;73.11;102036.81;3616559;39;20387;-67
2023/06/01 01:10:08;;;;;;;16.45;11.25;;;;;;;13.80;73.16;102038.06;3618756;39;20123;-66
2023/06/01 01:12:58;;;;;;;14.77;11.20;;;;;;;13.70;73.47;102038.56;3614984;39;20086;-67
2023/06/01 01:15:51;;;;;;;18.52;10.57;;;;;;;13.64;73.61;102038.91;3616146;39;20082;-67
2023/06/01 01:18:45;;;;;;;14.60;10.45;;;;;;;13.60;74.12;102040.00;3615863;39;20059;-67
2023/06/01 01:21:28;;;;;;;19.92;12.50;;;;;;;13.58;73.89;102033.84;3613509;39;20055;-67
2023/06/01 01:24:31;;;;;;;16.55;11.55;;;;;;;13.48;74.51;102038.03;3614512;39;20123;-67
2023/06/01 01:27:24;;;;;;;18.73;11.60;;;;;;;13.42;74.40;102038.34;3612702;39;20058;-67
2023/06/01 01:30:05;;;;;;;14.95;11.35;;;;;;;13.15;74.89;101998.31;3613050;39;20046;-67
2023/06/01 01:32:32;;;;;;;15.63;11.50;;;;;;;13.42;74.26;102043.75;3614247;39;20066;-68
2023/06/01 01:35:00;;;;;;;15.50;11.65;;;;;;;13.39;74.44;102043.91;3611810;39;20062;-67
2023/06/01 01:37:26;;;;;;;18.85;12.02;;;;;;;13.33;75.00;102053.22;3614078;39;20051;-67
2023/06/01 01:39:52;;;;;;;16.10;12.13;;;;;;;13.28;75.20;102041.78;3614322;39;20047;-68
2023/06/01 01:42:17;;;;;;;16.10;12.43;;;;;;;13.26;74.53;102054.50;3613693;39;20065;-67
2023/06/01 01:44:46;;;;;;;18.25;12.80;;;;;;;13.24;75.23;102059.06;3617330;39;20046;-67
2023/06/01 01:47:27;;;;;;;16.83;12.70;;;;;;;13.17;74.47;102055.81;3613479;39;20054;-66
2023/06/01 01:50:04;;;;;;;19.88;13.50;;;;;;;12.95;75.14;102045.28;3612557;39;20062;-66
2023/06/01 01:52:39;;;;;;;19.50;13.43;;;;;;;12.99;75.31;102057.66;3613144;39;20046;-67
2023/06/01 01:55:09;;;;;;;19.80;13.57;;;;;;;12.94;75.75;102054.34;3615230;39;20058;-66
2023/06/01 01:57:36;;;;;;;20.08;14.02;;;;;;;12.86;75.72;102045.75;3616289;39;20123;-66
2023/06/01 02:00:06;;;;;;;17.02;13.65;;;;;;;12.83;76.26;102061.25;3612795;39;20062;-66
2023/06/01 02:02:32;;;;;;;20.38;13.88;;;;;;;12.80;76.22;102054.16;3614052;39;20047;-66
2023/06/01 02:04:57;;;;;;;19.30;14.57;;;;;;;12.73;76.52;102061.72;3611687;39;20179;-66
2023/06/01 02:07:23;;;;;;;19.65;14.18;;;;;;;12.67;76.03;102045.84;3613489;39;20334;-67
2023/06/01 02:09:49;;;;;;;23.95;14.23;;;;;;;12.63;76.25;102049.66;3617269;39;20050;-67
2023/06/01 02:12:15;;;;;;;21.23;15.07;;;;;;;12.47;76.44;102035.19;3615077;39;20054;-66
2023/06/01 02:14:40;;;;;;;22.00;14.63;;;;;;;12.58;76.28;102048.13;3615346;39;20058;-67
2023/06/01 02:17:07;;;;;;;20.88;14.88;;;;;;;12.54;76.77;102047.41;3616331;39;20293;-66
2023/06/01 02:19:33;;;;;;;20.88;15.40;;;;;;;12.48;76.85;102039.63;3615137;39;20578;-67
2023/06/01 02:21:59;;;;;;;23.45;16.25;;;;;;;12.48;76.74;102045.91;3607821;39;20062;-67
2023/06/01 02:24:25;;;;;;;22.05;15.35;;;;;;;12.32;76.54;102016.13;3614511;39;20082;-67
2023/06/01 02:26:55;;;;;;;24.92;14.95;;;;;;;12.48;76.85;102040.50;3607198;39;20076;-67
2023/06/01 02:29:22;;;;;;;20.42;15.02;;;;;;;12.44;76.33;102043.44;3612381;39;20054;-66
2023/06/01 02:31:50;;;;;;;24.73;14.10;;;;;;;12.41;76.22;102040.91;3614599;39;20050;-66
2023/06/01 02:34:17;;;;;;;17.58;13.43;;;;;;;12.42;76.70;102045.34;3618570;39;20058;-67
2023/06/01 02:36:42;;;;;;;20.60;14.50;;;;;;;12.42;75.74;102050.72;3613166;39;20047;-66
2023/06/01 02:39:08;;;;;;;20.10;13.48;;;;;;;12.40;76.11;102047.22;3613622;39;20057;-67
2023/06/01 02:41:34;;;;;;;18.15;13.25;;;;;;;12.42;76.10;102043.50;3612264;39;20057;-68
2023/06/01 02:44:00;;;;;;;16.35;13.32;;;;;;;12.46;75.47;102047.81;3612974;39;20058;-66
2023/06/01 02:46:25;;;;;;;20.13;13.52;;;;;;;12.49;75.22;102044.06;3613163;39;20054;-67
2023/06/01 02:48:52;;;;;;;16.58;12.30;;;;;;;12.53;74.97;102040.28;3605884;39;20049;-67
2023/06/01 02:51:21;;;;;;;16.17;11.68;;;;;;;12.49;74.47;102044.94;3612590;39;20053;-67
2023/06/01 02:53:47;;;;;;;21.48;12.98;;;;;;;12.40;75.19;102041.81;3615049;39;20059;-67
2023/06/01 02:56:14;;;;;;;16.90;11.65;;;;;;;12.39;75.98;102042.78;3615146;39;20541;-67
2023/06/01 02:58:39;;;;;;;14.90;12.30;;;;;;;12.41;74.82;102044.47;3615767;39;20061;-66
2023/06/01 03:01:05;;;;;;;14.73;11.48;;;;;;;12.37;75.45;102039.28;3615161;39;20412;-67
2023/06/01 03:03:31;;;;;;;14.40;11.20;;;;;;;12.35;76.03;102043.91;3615949;39;20090;-67
2023/06/01 03:06:00;;;;;;;17.08;11.60;;;;;;;12.02;75.39;101988.00;3614460;39;20050;-67
2023/06/01 03:08:25;;;;;;;17.58;11.90;;;;;;;12.32;74.83;102051.19;3614126;39;20047;-67
2023/06/01 03:10:51;;;;;;;16.15;11.90;;;;;;;12.26;75.41;102039.81;3613666;39;20061;-67
2023/06/01 03:13:16;;;;;;;15.73;11.48;;;;;;;12.30;75.37;102044.09;3615559;39;20047;-66
2023/06/01 03:15:42;;;;;;;14.20;11.18;;;;;;;12.31;75.14;102053.97;3615703;39;20062;-67
2023/06/01 03:18:10;;;;;;;16.70;11.18;;;;;;;12.28;75.76;102043.34;3615556;39;20098;-68
2023/06/01 03:20:36;;;;;;;16.80;11.32;;;;;;;12.34;75.73;102047.53;3617386;39;20126;-67
2023/06/01 03:23:01;;;;;;;16.38;10.93;;;;;;;12.34;75.13;102055.59;3614430;39;20090;-67
2023/06/01 03:25:27;;;;;;;13.02;10.77;;;;;;;12.18;75.68;102048.31;3613467;39;20057;-66
2023/06/01 03:27:52;;;;;;;15.80;11.13;;;;;;;12.21;76.15;102053.53;3617953;39;20050;-66
2023/06/01 03:30:18;;;;;;;11.80;9.93;;;;;;;12.23;75.39;102051.63;3616898;39;20062;-67
2023/06/01 03:32:45;;;;;;;14.63;9.93;;;;;;;12.23;76.26;102051.63;3615898;39;20051;-66
2023/06/01 03:35:12;;;;;;;10.80;9.70;;;;;;;12.23;75.55;102059.72;3615989;39;20419;-68
2023/06/01 03:37:41;;;;;;;15.00;10.13;;;;;;;12.19;74.93;102055.44;3613007;39;20417;-65
2023/06/01 03:40:11;;;;;;;14.52;10.15;;;;;;;12.17;75.53;102046.53;3614353;39;20051;-66
2023/06/01 03:42:47;;;;;;;13.55;9.48;;;;;;;12.11;75.81;102046.84;3614018;39;20099;-68
2023/06/01 03:45:16;;;;;;;13.43;9.23;;;;;;;12.14;75.15;102054.78;3614131;39;20059;-66
2023/06/01 03:47:42;;;;;;;15.55;9.77;;;;;;;12.17;75.46;102051.94;3616974;39;20054;-67
2023/06/01 03:50:10;;;;;;;13.55;9.52;;;;;;;12.20;75.24;102053.59;3617615;39;20057;-68
2023/06/01 03:52:37;;;;;;;14.43;9.77;;;;;;;12.25;74.76;102059.66;3616088;39;20094;-66
2023/06/01 03:55:10;;;;;;;14.50;9.63;;;;;;;12.28;74.81;102054.97;3614858;39;20094;-67
2023/06/01 03:57:36;;;;;;;13.77;8.88;;;;;;;12.37;74.22;102064.44;3616082;39;20577;-67
2023/06/01 04:00:19;;;;;;;13.68;9.18;;;;;;;12.37;73.33;102063.56;3619568;39;20378;-67
2023/06/01 04:02:49;;;;;;;12.27;9.05;;;;;;;12.33;73.78;102065.53;3617170;39;20342;-67
2023/06/01 04:05:19;;;;;;;12.25;8.52;;;;;;;12.29;74.34;102056.72;3614538;39;20050;-67
2023/06/01 04:07:47;;;;;;;13.70;8.60;;;;;;;12.30;73.88;102063.88;3615136;39;20051;-66
2023/06/01 04:10:13;;;;;;;10.18;8.65;;;;;;;11.87;74.33;101994.16;3613862;39;20371;-66
2023/06/01 04:12:50;;;;;;;11.80;8.38;;;;;;;12.23;73.90;102062.41;3615342;39;21773;-66
2023/06/01 04:15:19;;;;;;;12.73;9.35;;;;;;;12.24;74.58;102064.19;3614911;39;20416;-66
2023/06/01 04:17:44;;;;;;;12.80;8.55;;;;;;;12.26;74.00;102061.41;3614693;39;20043;-65
2023/06/01 04:20:15;;;;;;;10.70;8.50;;;;;;;12.20;73.37;102062.56;3614953;39;20073;-66
2023/06/01 04:22:42;;;;;;;12.57;8.70;;;;;;;12.25;74.38;102062.34;3614283;39;20562;-66
2023/06/01 04:25:16;;;;;;;14.07;8.35;;;;;;;12.22;74.09;102052.59;3614142;39;20071;-67
2023/06/01 04:27:51;;;;;;;13.23;8.38;;;;;;;12.24;73.93;102056.09;3617809;39;20059;-66
2023/06/01 04:30:17;;;;;;;12.40;8.75;;;;;;;12.22;74.04;102060.69;3612888;39;20054;-66
2023/06/01 04:32:44;;;;;;;14.73;8.88;;;;;;;12.21;74.31;102058.03;3614571;39;20325;-66
2023/06/01 04:35:11;;;;;;;13.57;8.77;;;;;;;12.22;73.42;102065.19;3614190;39;20124;-66
2023/06/01 04:37:40;;;;;;;13.60;9.23;;;;;;;12.26;73.71;102070.34;3613585;39;20059;-66
2023/06/01 04:40:09;;;;;;;12.90;9.25;;;;;;;12.24;74.02;102064.19;3614614;39;20108;-66
2023/06/01 04:42:48;;;;;;;12.63;8.75;;;;;;;12.31;74.07;102076.41;3617408;39;20070;-66
2023/06/01 04:45:15;;;;;;;12.05;8.40;;;;;;;12.36;73.60;102078.84;3615181;39;20043;-66
2023/06/01 04:47:44;;;;;;;15.82;9.52;;;;;;;12.42;73.43;102072.28;3614219;39;20126;-66
2023/06/01 04:50:12;;;;;;;11.88;8.60;;;;;;;12.49;73.86;102073.72;3613978;39;20058;-65
2023/06/01 04:52:41;;;;;;;12.25;8.77;;;;;;;12.54;72.29;102077.94;3617430;39;20066;-65
2023/06/01 04:55:08;;;;;;;11.95;8.40;;;;;;;12.60;72.10;102075.91;3614675;39;20043;-64
2023/06/01 04:57:35;;;;;;;12.48;8.43;;;;;;;12.68;72.49;102077.25;3614498;39;20330;-65
2023/06/01 05:00:12;;;;;;;13.20;8.63;;;;;;;12.71;72.03;102071.69;3614355;39;20373;-65
2023/06/01 05:02:40;;;;;;;11.32;8.48;;;;;;;12.77;71.04;102074.09;3613881;39;20097;-66
2023/06/01 05:05:07;;;;;;;12.55;8.85;;;;;;;12.81;71.58;102068.53;3613526;39;20043;-66
2023/06/01 05:07:33;;;;;;;18.25;9.05;;;;;;;12.86;70.43;102071.88;3619120;39;20035;-67
2023/06/01 05:10:04;;;;;;;12.90;9.23;;;;;;;12.88;69.88;102070.00;3617844;39;20070;-66
2023/06/01 05:12:30;;;;;;;16.63;10.07;;;;;;;12.44;70.10;102008.38;3616703;39;20047;-67
2023/06/01 05:14:56;;;;;;;13.85;10.02;;;;;;;12.78;70.69;102069.56;3614986;39;20127;-65
2023/06/01 05:17:21;;;;;;;10.93;8.90;;;;;;;12.82;70.52;102073.00;3617956;39;20340;-66
2023/06/01 05:19:47;;;;;;;11.43;8.98;;;;;;;12.83;70.62;102072.91;3613222;39;20055;-66
2023/06/01 05:22:13;;;;;;;14.32;9.38;;;;;;;12.76;70.13;102066.09;3617854;39;20054;-65
2023/06/01 05:24:38;;;;;;;13.68;9.82;;;;;;;12.86;69.94;102072.75;3619264;39;20061;-66
2023/06/01 05:27:05;;;;;;;14.27;9.57;;;;;;;12.90;70.26;102073.47;3620064;39;20062;-65
2023/06/01 05:29:31;;;;;;;15.15;10.32;;;;;;;12.90;69.78;102070.75;3618411;39;20289;-65
2023/06/01 05:31:56;;;;;;;13.60;9.25;;;;;;;12.91;69.46;102075.22;3618849;39;20065;-66
2023/06/01 05:34:22;;;;;;;14.23;10.15;;;;;;;12.91;69.73;102070.69;3616170;39;20047;-65
2023/06/01 05:36:48;;;;;;;15.55;9.82;;;;;;;12.94;69.94;102073.25;3606138;39;20051;-65
2023/06/01 05:39:15;;;;;;;15.30;10.30;;;;;;;12.12;69.80;101916.53;3616603;39;20050;-66
2023/06/01 05:41:41;;;;;;;15.10;9.20;;;;;;;12.84;69.27;102019.81;3617921;39;20266;-65
2023/06/01 05:44:06;;;;;;;14.75;10.30;;;;;;;13.11;69.13;102071.47;3615628;39;20119;-65
2023/06/01 05:46:32;;;;;;;15.82;10.52;;;;;;;13.14;69.31;102064.09;3615336;39;20050;-66
2023/06/01 05:48:57;;;;;;;15.88;10.38;;;;;;;13.18;68.88;102065.66;3618805;39;20062;-65
2023/06/01 05:51:23;;;;;;;14.20;9.80;;;;;;;13.20;68.97;102066.47;3616097;39;20047;-66
2023/06/01 05:53:49;;;;;;;12.60;9.82;;;;;;;13.23;68.41;102065.44;3613012;39;20428;-65
2023/06/01 05:56:16;;;;;;;17.00;9.70;;;;;;;13.26;69.11;102061.72;3615015;39;20059;-65
2023/06/01 05:58:42;;;;;;;15.60;9.57;;;;;;;13.28;68.93;102067.91;3616723;39;20115;-66
2023/06/01 06:01:10;;;;;;;16.80;10.38;;;;;;;13.35;68.27;102070.22;3613258;39;20126;-66
2023/06/01 06:03:36;;;;;;;15.18;9.50;;;;;;;13.36;68.02;102076.50;3615781;39;20055;-66
2023/06/01 06:06:02;;;;;;;15.38;10.30;;;;;;;13.30;67.86;102080.38;3614881;39;20054;-66
2023/06/01 06:08:29;;;;;;;14.40;9.68;;;;;;;13.22;68.67;102071.78;3615222;39;20145;-65
2023/06/01 06:10:56;;;;;;;13.00;9.55;;;;;;;13.28;68.05;102068.78;3615384;39;20065;-65
2023/06/01 06:13:21;;;;;;;13.30;9.93;;;;;;;13.37;67.95;102071.00;3617156;39;20302;-66
2023/06/01 06:15:47;;;;;;;13.68;9.10;;;;;;;13.47;68.23;102074.06;3617065;39;20566;-66
2023/06/01 06:18:13;;;;;;;14.20;9.77;;;;;;;13.64;67.62;102076.75;3614977;39;20050;-66
2023/06/01 06:20:38;;;;;;;13.65;9.32;;;;;;;13.77;67.00;102073.38;3618080;39;20053;-65
2023/06/01 06:23:04;;;;;;;11.25;9.70;;;;;;;13.85;66.60;102073.78;3615202;39;20054;-66
2023/06/01 06:25:29;;;;;;;15.90;9.98;;;;;;;13.97;65.89;102078.53;3614383;39;20089;-65
2023/06/01 06:27:55;;;;;;;12.88;9.32;;;;;;;14.04;65.85;102073.63;3615391;39;20046;-65
2023/06/01 06:30:21;;;;;;;12.77;9.60;;;;;;;14.09;65.16;102074.25;3612683;39;20062;-65
2023/06/01 06:32:47;;;;;;;13.40;9.48;;;;;;;14.20;65.30;102076.34;3614485;39;20053;-65
2023/06/01 06:35:12;;;;;;;13.38;8.80;;;;;;;14.30;64.22;102082.97;3615593;39;20074;-66
2023/06/01 06:37:40;;;;;;;14.52;10.10;;;;;;;14.22;64.04;102066.31;3614666;39;20066;-66
2023/06/01 06:40:06;;;;;;;14.10;9.25;;;;;;;14.34;64.11;102073.75;3616545;39;20063;-65
2023/06/01 06:42:32;;;;;;;15.25;9.60;;;;;;;14.36;64.18;102063.69;3615420;39;20378;-65
2023/06/01 06:44:58;;;;;;;13.77;9.02;;;;;;;14.58;63.92;102074.16;3615321;39;20058;-65
2023/06/01 06:47:24;;;;;;;10.20;8.50;;;;;;;14.75;63.16;102079.47;3617762;39;20069;-66
2023/06/01 06:49:51;;;;;;;12.80;8.40;;;;;;;14.87;61.94;102075.13;3614426;39;20057;-66
2023/06/01 06:52:17;;;;;;;11.00;8.85;;;;;;;15.00;62.59;102073.44;3613072;39;20062;-66
2023/06/01 06:54:43;;;;;;;13.13;9.07;;;;;;;14.99;61.22;102031.06;3615336;39;20050;-66
2023/06/01 06:57:10;;;;;;;14.02;9.13;;;;;;;15.39;60.64;102082.81;3600116;39;20147;-65
2023/06/01 06:59:36;;;;;;;11.93;8.82;;;;;;;15.50;60.54;102093.81;3614695;39;20050;-65
2023/06/01 07:02:03;;;;;;;12.75;8.63;;;;;;;15.63;60.02;102082.22;3614656;39;20057;-66
2023/06/01 07:04:29;;;;;;;10.75;8.27;;;;;;;15.69;59.28;102068.31;3613785;39;20390;-66
2023/06/01 07:06:55;;;;;;;10.82;9.07;;;;;;;15.94;59.51;102089.31;3616078;39;20293;-65
2023/06/01 07:09:21;;;;;;;13.13;8.98;;;;;;;15.95;57.57;102086.50;3613061;39;20069;-66
2023/06/01 07:11:47;;;;;;;13.00;8.32;;;;;;;16.04;58.61;102089.59;3616358;39;20408;-65
2023/06/01 07:14:14;;;;;;;12.55;8.23;;;;;;;16.02;57.59;102087.84;3610543;39;20163;-65
2023/06/01 07:16:40;;;;;;;19.52;9.85;;;;;;;15.76;58.10;102029.88;3614393;39;20340;-65
2023/06/01 07:19:08;;;;;;;13.48;8.38;;;;;;;16.07;58.68;102081.25;3615535;39;20107;-66
2023/06/01 07:21:33;;;;;;;12.98;8.68;;;;;;;16.02;58.43;102077.00;3612716;39;20058;-67
2023/06/01 07:23:59;;;;;;;15.55;8.48;;;;;;;16.01;57.89;102067.09;3611876;39;20071;-67
2023/06/01 07:26:26;;;;;;;12.52;8.32;;;;;;;16.19;57.81;102083.16;3612708;39;20054;-68
2023/06/01 07:28:53;;;;;;;14.48;8.98;;;;;;;16.25;56.71;102082.75;3611059;39;20639;-67
2023/06/01 07:31:20;;;;;;;12.88;8.95;;;;;;;16.36;55.81;102080.19;3612579;39;20051;-68
2023/06/01 07:33:46;;;;;;;15.25;8.95;;;;;;;16.48;57.71;102084.81;3612927;39;20055;-67
2023/06/01 07:36:12;;;;;;;14.27;9.50;;;;;;;16.62;56.40;102085.75;3615799;39;20377;-66
2023/06/01 07:38:37;;;;;;;14.25;8.65;;;;;;;16.74;55.82;102082.19;3613058;39;20091;-66
2023/06/01 07:41:03;;;;;;;11.10;8.00;;;;;;;16.87;55.84;102085.88;3619032;39;20395;-67
2023/06/01 07:43:28;;;;;;;13.23;8.80;;;;;;;16.84;55.89;102080.66;3615585;39;20057;-67
2023/06/01 07:45:55;;;;;;;15.35;8.57;;;;;;;16.81;56.07;102072.72;3619650;39;20058;-67
2023/06/01 07:48:20;;;;;;;14.13;8.48;;;;;;;16.84;55.67;102061.63;3608194;39;20154;-66
2023/06/01 07:50:46;;;;;;;13.02;8.27;;;;;;;17.13;55.29;102085.91;3618355;39;20054;-67
2023/06/01 07:53:13;;;;;;;13.75;7.60;;;;;;;17.22;55.75;102082.56;3613941;39;20055;-66
2023/06/01 07:55:39;;;;;;;14.93;8.73;;;;;;;17.33;54.34;102077.22;3616792;39;20066;-68
2023/06/01 07:58:05;;;;;;;13.23;8.20;;;;;;;17.50;54.00;102089.63;3615946;39;20047;-68
2023/06/01 08:00:31;;;;;;;13.75;8.18;;;;;;;17.65;53.96;102087.66;3607227;39;20048;-67
2023/06/01 08:02:58;;;;;;;14.23;8.00;;;;;;;17.74;52.28;102088.88;3614627;39;20046;-67
2023/06/01 08:05:24;;;;;;;12.73;7.90;;;;;;;17.81;52.78;102088.34;3614857;39;20067;-67
2023/06/01 08:07:50;;;;;;;13.48;8.75;;;;;;;17.95;53.24;102079.19;3615445;39;20274;-67
2023/06/01 08:10:16;;;;;;;12.65;8.55;;;;;;;17.83;52.48;102051.03;3617883;39;20296;-68
2023/06/01 08:12:44;;;;;;;13.63;8.75;;;;;;;18.04;52.66;102085.78;3618258;39;20358;-67
2023/06/01 08:15:11;;;;;;;11.85;8.35;;;;;;;18.04;52.77;102083.06;3613965;39;20405;-66
2023/06/01 08:17:38;;;;;;;12.75;8.27;;;;;;;18.18;51.27;102072.03;3618431;39;20054;-67
2023/06/01 08:20:10;;;;;;;13.35;8.38;;;;;;;18.38;51.97;102069.69;3603599;39;20047;-67
2023/06/01 08:22:36;;;;;;;11.60;7.47;;;;;;;18.59;50.28;102068.06;3617677;39;20051;-67
2023/06/01 08:25:03;;;;;;;14.10;8.15;;;;;;;18.72;51.58;102074.34;3615936;39;20066;-67
2023/06/01 08:27:28;;;;;;;10.65;7.57;;;;;;;18.85;50.43;102067.97;3614664;39;20216;-67
2023/06/01 08:29:54;;;;;;;11.60;7.38;;;;;;;18.98;49.06;102069.59;3617319;39;20283;-67
2023/06/01 08:32:20;;;;;;;11.52;8.27;;;;;;;18.94;48.75;102065.38;3617098;39;20057;-68
2023/06/01 08:34:46;;;;;;;11.70;8.20;;;;;;;19.01;48.93;102073.97;3618664;39;20057;-68
2023/06/01 08:37:16;;;;;;;11.95;8.07;;;;;;;19.12;48.01;102075.84;3613337;39;20057;-68
2023/06/01 08:39:42;;;;;;;12.45;8.13;;;;;;;19.24;47.09;102069.41;3614549;39;20046;-67
2023/06/01 08:42:34;;;;;;;14.23;8.45;;;;;;;19.42;48.83;102067.09;3617737;39;20057;-67
2023/06/01 08:45:05;;;;;;;12.55;7.88;;;;;;;19.58;46.52;102069.47;3619002;39;20047;-68
2023/06/01 08:47:32;;;;;;;14.27;8.85;;;;;;;19.49;48.75;102062.91;3620269;39;20066;-67
2023/06/01 08:50:01;;;;;;;12.85;8.90;;;;;;;19.66;48.19;102058.84;3616452;39;20090;-66
2023/06/01 08:52:31;;;;;;;12.43;8.73;;;;;;;19.49;46.98;102024.72;3614002;39;20102;-67
2023/06/01 08:55:04;;;;;;;12.23;8.10;;;;;;;19.84;46.99;102057.34;3614866;39;20046;-68
2023/06/01 08:57:31;;;;;;;12.80;8.68;;;;;;;19.81;48.10;102057.59;3615124;39;20058;-67
2023/06/01 08:59:58;;;;;;;13.77;8.30;;;;;;;20.09;48.36;102056.19;3618561;39;20338;-68
2023/06/01 09:02:25;;;;;;;14.98;9.10;;;;;;;20.37;45.69;102059.38;3615353;39;20138;-67
2023/06/01 09:04:52;;;;;;;14.75;9.32;;;;;;;20.35;46.31;102053.16;3616325;39;20054;-68
2023/06/01 09:07:18;;;;;;;14.63;9.00;;;;;;;20.39;47.00;102057.38;3613259;39;20061;-68
2023/06/01 09:09:44;;;;;;;13.43;8.77;;;;;;;20.41;46.99;102061.72;3617023;39;20054;-68
2023/06/01 09:12:18;;;;;;;12.05;8.88;;;;;;;20.45;45.45;102053.25;3608817;39;20152;-69
2023/06/01 09:14:44;;;;;;;12.52;8.35;;;;;;;20.63;45.39;102055.34;3613009;39;20039;-67
2023/06/01 09:17:21;;;;;;;13.50;9.10;;;;;;;20.72;44.40;102050.09;3616926;39;20082;-68
2023/06/01 09:19:47;;;;;;;12.80;8.85;;;;;;;20.33;43.68;102006.88;3617233;39;20086;-68
2023/06/01 09:22:13;;;;;;;12.82;9.05;;;;;;;20.42;44.07;102013.41;3618721;39;20059;-68
2023/06/01 09:24:42;;;;;;;14.18;9.07;;;;;;;20.62;45.90;102042.69;3618296;39;20153;-67
2023/06/01 09:27:08;;;;;;;14.27;9.23;;;;;;;20.76;45.71;102038.75;3617465;39;20343;-68
2023/06/01 09:29:34;;;;;;;12.93;8.40;;;;;;;21.12;45.17;102031.09;3613090;39;20059;-67
2023/06/01 09:32:02;;;;;;;12.45;8.90;;;;;;;21.12;44.71;102011.09;3617270;39;20057;-67
2023/06/01 09:34:30;;;;;;;15.00;9.05;;;;;;;21.35;42.84;102020.03;3617907;39;20051;-67
2023/06/01 09:36:55;;;;;;;10.48;8.48;;;;;;;21.54;44.06;102020.16;3618586;39;20061;-68
2023/06/01 09:39:24;;;;;;;13.18;9.45;;;;;;;21.63;44.62;102007.47;3620952;39;20067;-67
2023/06/01 09:41:58;;;;;;;13.00;9.57;;;;;;;21.79;42.77;102019.66;3617734;39;20492;-68
2023/06/01 09:44:36;;;;;;;11.40;9.75;;;;;;;21.95;41.00;102016.41;3614846;39;20074;-68
2023/06/01 09:47:09;;;;;;;13.85;9.90;;;;;;;21.83;42.24;102001.09;3614091;39;20055;-67
2023/06/01 09:49:37;;;;;;;13.05;9.05;;;;;;;22.03;43.92;102012.94;3615793;39;20053;-67
2023/06/01 09:52:06;;;;;;;13.48;8.93;;;;;;;22.23;40.93;102011.13;3614901;39;20047;-69
2023/06/01 09:54:43;;;;;;;13.48;9.50;;;;;;;22.43;43.52;102014.78;3612602;39;20102;-69
2023/06/01 09:57:11;;;;;;;11.65;8.57;;;;;;;22.52;42.06;102015.78;3618327;39;20088;-68
2023/06/01 09:59:47;;;;;;;11.52;8.38;;;;;;;22.50;41.98;102004.09;3615355;39;20051;-68
2023/06/01 10:02:22;;;;;;;14.07;9.38;;;;;;;22.55;41.54;102010.91;3613535;39;20050;-68
2023/06/01 10:04:53;;;;;;;14.07;9.02;;;;;;;22.74;41.08;102012.75;3616517;39;20039;-68
2023/06/01 10:07:22;;;;;;;13.32;9.38;;;;;;;22.90;40.03;102009.44;3612190;39;20440;-68
2023/06/01 10:09:57;;;;;;;11.35;8.35;;;;;;;22.78;41.83;101969.47;3613376;39;20293;-68
2023/06/01 10:12:28;;;;;;;13.18;8.57;;;;;;;23.06;38.62;102012.47;3613914;39;20124;-68
2023/06/01 10:14:55;;;;;;;13.77;9.27;;;;;;;22.89;39.54;101983.84;3616428;39;20061;-67
2023/06/01 10:17:22;;;;;;;13.10;8.75;;;;;;;23.09;41.69;102005.78;3616134;39;20066;-67
2023/06/01 10:19:49;;;;;;;12.68;9.45;;;;;;;23.21;40.90;102004.59;3616034;39;20277;-68
2023/06/01 10:22:16;;;;;;;11.20;8.45;;;;;;;23.44;39.74;101999.63;3616009;39;20046;-68
2023/06/01 10:24:43;;;;;;;11.88;8.70;;;;;;;23.54;39.11;102010.56;3614699;39;20072;-67
2023/06/01 10:27:38;;;;;;;11.27;9.10;;;;;;;23.43;38.72;101997.88;3613694;39;20264;-67
2023/06/01 10:30:09;;;;;;;15.65;8.75;;;;;;;23.51;40.15;101977.94;3615830;39;20057;-66
2023/06/01 10:32:37;;;;;;;13.70;9.00;;;;;;;23.70;37.84;102008.06;3617152;39;20133;-68
2023/06/01 10:35:05;;;;;;;13.30;9.70;;;;;;;23.50;38.23;101959.72;3614653;39;20463;-68
2023/06/01 10:37:31;;;;;;;15.18;9.30;;;;;;;23.75;38.16;102002.97;3616450;39;20334;-68
2023/06/01 10:40:21;;;;;;;11.98;9.77;;;;;;;23.67;38.25;101993.75;3617111;39;20050;-68
2023/06/01 10:42:48;;;;;;;13.18;9.93;;;;;;;23.46;38.38;101969.28;3617345;39;20054;-69
2023/06/01 10:45:39;;;;;;;14.20;9.77;;;;;;;23.44;39.40;101993.25;3618152;39;20047;-68
2023/06/01 10:48:13;;;;;;;14.30;9.63;;;;;;;23.62;38.33;101992.31;3616461;39;20074;-68
2023/06/01 10:50:41;;;;;;;14.63;9.30;;;;;;;23.91;37.27;101990.47;3613686;39;20063;-67
2023/06/01 10:53:30;;;;;;;11.75;9.32;;;;;;;23.92;39.14;101983.97;3615156;39;20065;-67
2023/06/01 10:56:27;;;;;;;13.43;10.07;;;;;;;23.99;38.35;101993.31;3615685;39;20395;-67
2023/06/01 10:59:08;;;;;;;12.93;8.93;;;;;;;23.93;37.25;101999.41;3612866;39;20050;-67
2023/06/01 11:01:46;;;;;;;14.52;10.85;;;;;;;23.92;37.49;101987.56;3604377;39;20051;-67
2023/06/01 11:04:13;;;;;;;12.85;9.38;;;;;;;23.92;38.93;101989.47;3616367;39;20383;-68
2023/06/01 11:06:42;;;;;;;11.88;8.88;;;;;;;24.06;37.04;101988.91;3613055;39;20047;-68
2023/06/01 11:09:10;;;;;;;13.15;9.55;;;;;;;24.09;37.64;101989.47;3614184;39;20054;-68
2023/06/01 11:11:48;;;;;;;11.02;9.43;;;;;;;24.21;37.22;101984.63;3612436;39;20050;-68
2023/06/01 11:14:16;;;;;;;12.02;9.32;;;;;;;24.26;36.55;101990.53;3613307;39;20138;-68
2023/06/01 11:16:41;;;;;;;11.20;8.82;;;;;;;24.32;35.95;101995.38;3614741;39;20066;-68
2023/06/01 11:19:08;;;;;;;13.23;9.13;;;;;;;24.35;37.14;101976.84;3614046;39;20057;-67
2023/06/01 11:21:43;;;;;;;14.60;9.55;;;;;;;24.53;37.98;101975.00;3614771;39;20353;-68